Holmes Reef, Australia
Current Conditions -  °F | °C
As of 6:00 AM on Tuesday 25 Nov 2014 (Local Time) from YBCS Reporting Station
Few Clouds Few Clouds  
Wind Chill: 75°   Ceiling: Unl
Heat Index: 75°   Visibility: 6mi
Dew Point: 72°   Wind: 7mph
Humidity: 89%   Direction: 150°SSE
Pressure: 29.88"   Gusts: NA
Location:  16.47°S, 147.87°E
Report Text: YBCS 242000Z 15006KT 9999 FEW008 24/22 Q1012 NOSIG
Loading
Personal Weather Stations






























Interactive Weather Map New forecast layout! Learn more

10-Day Weather Forecast

Advertisements
Track Severe Weather on mobile